Time;durP1;ratioP1;P1;durP2;ratioP2;P2;SDS_P1;SDS_P2;PMS_P1;PMS_P2;Temp;Humidity;BMP_temperature;BMP_pressure;BME280_temperature;BME280_humidity;BME280_pressure;Samples;Min_cycle;Max_cycle;Signal;HPM_P1;HPM_P2
2022/07/24 08:06:53;;;;;;;4.47;1.17;;;24.30;1.00;;;;;;5063567;28;20527;-58
2022/07/24 08:09:18;;;;;;;1.10;1.00;;;23.60;1.00;;;;;;5059685;28;20182;-57
2022/07/24 08:14:01;;;;;;;1.42;1.10;;;22.70;99.90;;;;;;5061825;28;20494;-66
2022/07/24 08:16:26;;;;;;;1.98;1.23;;;23.20;99.90;;;;;;5061456;28;20177;-64
2022/07/24 08:18:52;;;;;;;1.65;1.30;;;23.50;94.10;;;;;;5060699;28;20186;-67
2022/07/24 08:21:18;;;;;;;1.30;1.17;;;23.80;34.90;;;;;;5061115;28;20251;-67
2022/07/24 08:23:44;;;;;;;1.77;1.42;;;23.80;33.80;;;;;;5061389;28;20268;-66
2022/07/24 08:26:11;;;;;;;1.95;1.25;;;23.80;26.70;;;;;;5060762;28;20196;-66
2022/07/24 08:28:37;;;;;;;2.75;1.23;;;23.90;21.60;;;;;;5060904;28;20165;-67
2022/07/24 08:31:03;;;;;;;1.70;1.40;;;24.00;14.40;;;;;;5059513;28;20235;-66
2022/07/24 08:33:29;;;;;;;1.45;1.20;;;24.00;2.20;;;;;;5060391;28;20232;-65
2022/07/24 08:35:54;;;;;;;1.52;1.30;;;24.00;5.10;;;;;;5060130;28;20702;-67
2022/07/24 08:38:20;;;;;;;1.90;1.65;;;23.90;1.00;;;;;;5059774;28;20178;-67
2022/07/24 08:40:45;;;;;;;2.88;2.00;;;23.80;1.00;;;;;;5053503;28;20272;-67
2022/07/24 08:43:11;;;;;;;1.92;1.75;;;24.00;1.00;;;;;;5058049;28;20284;-67
2022/07/24 08:45:40;;;;;;;1.98;1.50;;;24.10;1.00;;;;;;5060161;28;20265;-66
2022/07/24 08:48:10;;;;;;;2.85;1.75;;;24.20;1.00;;;;;;5058609;28;20184;-65
2022/07/24 08:50:38;;;;;;;2.63;1.70;;;24.30;1.00;;;;;;5057550;28;20195;-67
2022/07/24 08:53:05;;;;;;;2.33;1.63;;;24.40;1.00;;;;;;5058715;28;20240;-66
2022/07/24 08:55:32;;;;;;;2.35;1.80;;;24.50;1.00;;;;;;5059819;28;20181;-67
2022/07/24 08:58:01;;;;;;;2.00;1.80;;;24.50;1.00;;;;;;5058372;28;20192;-67
2022/07/24 09:00:29;;;;;;;2.00;1.80;;;24.60;1.00;;;;;;5057660;28;20185;-66
2022/07/24 09:02:55;;;;;;;3.28;1.85;;;24.70;1.00;;;;;;5058278;28;20286;-66
2022/07/24 09:05:21;;;;;;;2.67;2.08;;;24.70;1.00;;;;;;5059279;28;21221;-67
2022/07/24 09:07:46;;;;;;;2.20;2.00;;;24.70;1.00;;;;;;5059981;28;20177;-68
2022/07/24 09:10:16;;;;;;;1.75;1.65;;;24.70;1.00;;;;;;5058300;28;20190;-66
2022/07/24 09:12:45;;;;;;;2.60;2.00;;;24.70;1.00;;;;;;5059679;28;20714;-67
2022/07/24 09:15:20;;;;;;;2.10;1.90;;;24.70;1.00;;;;;;5058430;28;20185;-68
2022/07/24 09:17:51;;;;;;;2.10;1.90;;;24.80;1.00;;;;;;5060216;28;20854;-68
2022/07/24 09:20:17;;;;;;;2.75;1.92;;;24.70;1.00;;;;;;5054625;28;20181;-68
2022/07/24 09:22:43;;;;;;;3.53;1.88;;;24.80;1.00;;;;;;5058076;28;20197;-69
2022/07/24 09:25:30;;;;;;;6.72;2.10;;;24.70;1.00;;;;;;5047885;28;20201;-67
2022/07/24 09:27:57;;;;;;;2.13;1.80;;;25.00;1.00;;;;;;5046080;28;20200;-69
2022/07/24 09:30:38;;;;;;;2.38;2.10;;;24.80;1.00;;;;;;5044274;28;20190;-67
2022/07/24 09:33:13;;;;;;;3.45;2.22;;;24.90;1.00;;;;;;5047339;28;20221;-67
2022/07/24 09:35:42;;;;;;;2.20;2.05;;;25.00;1.00;;;;;;5042060;28;20184;-67
2022/07/24 09:38:10;;;;;;;2.95;2.10;;;24.80;1.00;;;;;;5043488;28;20170;-67
2022/07/24 09:40:41;;;;;;;3.40;2.03;;;24.90;1.00;;;;;;5044898;28;20257;-67
2022/07/24 09:43:20;;;;;;;2.40;2.05;;;25.00;1.00;;;;;;5045628;28;20202;-68
2022/07/24 09:46:08;;;;;;;2.88;1.90;;;25.00;1.00;;;;;;5045961;28;20182;-68
2022/07/24 09:48:58;;;;;;;3.92;2.42;;;25.30;1.00;;;;;;5045169;28;20181;-67
2022/07/24 09:51:26;;;;;;;2.72;2.50;;;25.40;1.00;;;;;;5043952;28;20206;-67
2022/07/24 09:53:58;;;;;;;4.55;2.35;;;25.40;1.00;;;;;;5045551;28;20254;-67
2022/07/24 09:56:24;;;;;;;3.22;2.78;;;25.00;1.00;;;;;;5045392;28;20174;-68
2022/07/24 09:58:56;;;;;;;2.95;2.38;;;24.90;1.00;;;;;;5043037;28;20525;-67
2022/07/24 10:01:24;;;;;;;2.78;2.35;;;24.80;1.00;;;;;;5044860;28;20201;-66
2022/07/24 10:03:51;;;;;;;2.33;2.10;;;25.10;1.00;;;;;;5045381;28;20240;-66
2022/07/24 10:06:25;;;;;;;2.60;2.40;;;25.30;1.00;;;;;;5044807;28;20193;-67
2022/07/24 10:08:52;;;;;;;2.67;2.47;;;25.30;1.00;;;;;;5044793;28;20246;-66
2022/07/24 10:11:19;;;;;;;3.65;2.33;;;25.50;1.00;;;;;;5044510;28;20271;-67
2022/07/24 10:13:45;;;;;;;3.13;2.35;;;25.70;1.00;;;;;;5044825;28;20214;-66
2022/07/24 10:16:13;;;;;;;3.05;2.40;;;25.60;1.00;;;;;;5044808;28;20232;-68
2022/07/24 10:18:51;;;;;;;2.40;2.20;;;25.50;1.00;;;;;;5045279;28;20191;-67
2022/07/24 10:21:40;;;;;;;3.15;2.63;;;25.70;1.00;;;;;;5050586;28;20645;-67
2022/07/24 10:24:12;;;;;;;4.00;2.72;;;25.70;1.00;;;;;;5048502;28;20257;-65
2022/07/24 10:26:49;;;;;;;3.17;2.47;;;25.90;1.00;;;;;;5046356;28;20541;-66
2022/07/24 10:29:20;;;;;;;4.07;3.08;;;25.90;1.00;;;;;;5046984;28;20174;-66
2022/07/24 10:31:56;;;;;;;4.43;2.63;;;26.00;1.00;;;;;;5051317;28;20208;-65
2022/07/24 10:34:47;;;;;;;3.55;2.63;;;26.20;1.00;;;;;;5040733;28;20537;-66
2022/07/24 10:37:37;;;;;;;3.25;2.80;;;26.40;1.00;;;;;;5046370;28;20175;-67
2022/07/24 10:40:24;;;;;;;3.05;2.75;;;26.10;1.00;;;;;;5051436;28;20670;-66
2022/07/24 10:43:13;;;;;;;3.38;2.85;;;26.10;1.00;;;;;;5049951;28;20210;-67
2022/07/24 10:45:58;;;;;;;2.38;2.20;;;26.20;1.00;;;;;;5050992;28;20186;-67
2022/07/24 10:48:24;;;;;;;3.45;2.90;;;26.30;1.00;;;;;;5048773;28;20783;-66
2022/07/24 10:51:29;;;;;;;2.97;2.70;;;26.20;1.00;;;;;;5051918;28;20181;-66
2022/07/24 10:53:56;;;;;;;2.78;2.45;;;26.40;1.00;;;;;;5052482;28;20231;-67
2022/07/24 10:56:42;;;;;;;2.83;2.60;;;26.50;1.00;;;;;;5053359;28;20637;-66
2022/07/24 11:02:32;;;;;;;2.70;2.50;;;26.30;1.00;;;;;;5050389;22;20309;-82
2022/07/24 11:05:25;;;;;;;3.15;2.35;;;26.50;1.00;;;;;;5013980;28;20192;-82
2022/07/24 11:08:29;;;;;;;2.30;2.10;;;26.50;1.00;;;;;;5006914;28;20668;-83
2022/07/24 11:10:59;;;;;;;2.60;2.30;;;26.70;1.00;;;;;;5018049;28;20382;-83
2022/07/24 11:13:34;;;;;;;2.78;2.50;;;26.50;1.00;;;;;;5002130;28;20207;-83
2022/07/24 11:16:14;;;;;;;3.67;2.60;;;26.80;1.00;;;;;;5003099;28;20214;-82
2022/07/24 11:18:47;;;;;;;2.38;2.28;;;26.70;1.00;;;;;;5001721;28;20179;-83
2022/07/24 11:21:30;;;;;;;3.65;2.55;;;26.90;1.00;;;;;;5001970;28;20579;-82
2022/07/24 11:24:14;;;;;;;2.50;2.30;;;26.90;1.00;;;;;;5002854;28;20202;-83
2022/07/24 11:26:47;;;;;;;2.53;2.30;;;26.90;1.00;;;;;;5002139;28;20310;-83
2022/07/24 11:29:23;;;;;;;2.50;2.30;;;27.20;1.00;;;;;;5002704;28;20581;-83
2022/07/24 11:31:53;;;;;;;2.95;2.05;;;27.30;1.00;;;;;;5014030;28;20203;-84
2022/07/24 11:34:19;;;;;;;2.97;2.70;;;27.10;1.00;;;;;;5016304;28;20590;-85
2022/07/24 11:36:47;;;;;;;2.60;2.20;;;27.00;1.00;;;;;;5008914;28;20241;-84
2022/07/24 11:39:16;;;;;;;2.45;2.00;;;27.20;1.00;;;;;;5007789;28;20275;-83
2022/07/24 11:41:47;;;;;;;4.18;2.40;;;27.40;1.00;;;;;;5016342;28;20234;-84
2022/07/24 11:44:13;;;;;;;2.33;2.13;;;27.40;1.00;;;;;;5016267;28;20190;-85
2022/07/24 11:46:41;;;;;;;2.85;2.15;;;27.40;1.00;;;;;;5007913;28;20183;-83
2022/07/24 11:49:12;;;;;;;2.55;2.35;;;27.40;1.00;;;;;;5007209;28;20257;-85
2022/07/24 11:51:45;;;;;;;2.42;2.22;;;27.40;1.00;;;;;;5012402;28;20199;-83
2022/07/24 11:54:12;;;;;;;2.97;2.40;;;27.40;1.00;;;;;;5011385;28;20246;-83
2022/07/24 11:56:41;;;;;;;2.88;2.00;;;27.70;1.00;;;;;;5005320;28;20184;-83
2022/07/24 11:59:24;;;;;;;2.33;2.13;;;27.80;1.00;;;;;;5007506;28;20180;-83
2022/07/24 12:01:50;;;;;;;2.15;1.95;;;27.70;1.00;;;;;;5006590;28;20210;-83
2022/07/24 12:04:23;;;;;;;2.13;2.03;;;27.70;1.00;;;;;;5002174;28;20239;-85
2022/07/24 12:06:50;;;;;;;2.25;1.90;;;27.90;1.00;;;;;;5017250;28;20180;-84
2022/07/24 12:09:17;;;;;;;2.50;2.30;;;28.10;1.00;;;;;;5007839;28;20278;-83
2022/07/24 12:11:42;;;;;;;2.63;1.90;;;28.10;1.00;;;;;;5010499;28;20204;-84
2022/07/24 12:14:16;;;;;;;2.10;2.00;;;27.90;1.00;;;;;;5002843;28;20193;-83
2022/07/24 12:16:42;;;;;;;3.13;2.20;;;28.00;1.00;;;;;;5004997;28;20688;-84
2022/07/24 12:19:19;;;;;;;2.03;1.90;;;27.80;1.00;;;;;;5004347;28;20641;-84
2022/07/24 12:21:47;;;;;;;2.25;2.03;;;27.50;1.00;;;;;;5002991;28;20210;-85
2022/07/24 12:24:13;;;;;;;2.25;2.05;;;27.40;1.00;;;;;;5007421;28;20845;-83
2022/07/24 12:26:50;;;;;;;2.30;2.10;;;27.30;1.00;;;;;;5004351;28;20179;-83
2022/07/24 12:29:16;;;;;;;3.78;2.22;;;27.40;1.00;;;;;;5007264;28;20179;-83
2022/07/24 12:31:42;;;;;;;2.47;2.00;;;27.60;1.00;;;;;;5005054;28;20207;-83
2022/07/24 12:34:07;;;;;;;3.75;2.00;;;27.70;1.00;;;;;;5005925;28;20719;-84
2022/07/24 12:36:33;;;;;;;2.13;2.00;;;27.70;1.00;;;;;;5006852;28;20242;-84
2022/07/24 12:38:59;;;;;;;3.05;2.40;;;27.90;1.00;;;;;;5006405;28;20220;-85
2022/07/24 12:41:27;;;;;;;1.90;1.80;;;28.00;1.00;;;;;;5007936;28;20203;-84
2022/07/24 12:43:55;;;;;;;1.98;1.88;;;28.20;1.00;;;;;;5006409;28;20183;-84
2022/07/24 12:46:31;;;;;;;3.38;2.00;;;28.50;1.00;;;;;;5015810;28;20194;-84
2022/07/24 12:49:04;;;;;;;2.60;2.00;;;28.40;1.00;;;;;;5014015;28;20191;-83
2022/07/24 12:51:56;;;;;;;1.90;1.77;;;28.30;1.00;;;;;;5006495;28;20207;-83
2022/07/24 12:54:33;;;;;;;3.25;1.98;;;28.50;1.00;;;;;;5020499;28;20199;-83
2022/07/24 12:57:12;;;;;;;1.90;1.80;;;28.60;1.00;;;;;;5013228;28;20207;-87
2022/07/24 12:59:40;;;;;;;3.25;2.10;;;28.70;1.00;;;;;;5008299;28;20271;-86
2022/07/24 13:02:06;;;;;;;1.90;1.80;;;28.60;1.00;;;;;;5010573;28;20629;-85
2022/07/24 13:04:39;;;;;;;3.00;2.08;;;28.60;1.00;;;;;;5009112;28;20661;-84
2022/07/24 13:07:07;;;;;;;1.77;1.67;;;28.70;1.00;;;;;;5014904;28;20187;-84
2022/07/24 13:09:34;;;;;;;2.28;2.08;;;28.70;1.00;;;;;;5007187;28;20187;-85
2022/07/24 13:12:00;;;;;;;2.13;1.92;;;29.00;1.00;;;;;;5004518;28;20259;-86
2022/07/24 13:14:26;;;;;;;2.00;1.90;;;29.10;1.00;;;;;;4997046;28;20199;-83
2022/07/24 13:16:52;;;;;;;2.08;1.75;;;29.10;1.00;;;;;;5005198;28;20191;-83
2022/07/24 13:19:20;;;;;;;4.30;2.00;;;29.10;1.00;;;;;;5005571;28;20578;-82
2022/07/24 13:21:46;;;;;;;1.95;1.85;;;28.90;1.00;;;;;;5005121;28;20199;-83
2022/07/24 13:24:13;;;;;;;2.28;1.80;;;29.00;1.00;;;;;;5005750;28;20190;-80
2022/07/24 13:26:40;;;;;;;1.90;1.80;;;29.10;1.00;;;;;;5004035;28;20184;-77
2022/07/24 13:29:06;;;;;;;2.20;2.00;;;29.10;1.00;;;;;;5003850;28;20184;-82
2022/07/24 13:31:32;;;;;;;3.20;1.73;;;29.10;1.00;;;;;;5007610;28;20206;-79
2022/07/24 13:33:59;;;;;;;1.88;1.77;;;29.20;1.00;;;;;;5006162;28;20215;-78
2022/07/24 13:36:25;;;;;;;2.08;1.88;;;29.30;1.00;;;;;;5006704;28;20618;-81
2022/07/24 13:38:51;;;;;;;2.15;1.98;;;29.50;1.00;;;;;;5007345;28;20215;-81
2022/07/24 13:41:18;;;;;;;2.25;1.90;;;29.40;1.00;;;;;;5005054;28;20574;-82
2022/07/24 13:43:44;;;;;;;2.55;1.80;;;29.50;1.00;;;;;;5005330;28;20191;-79
2022/07/24 13:46:10;;;;;;;1.60;1.50;;;29.30;1.00;;;;;;5004975;28;20194;-82
2022/07/24 13:48:36;;;;;;;1.70;1.60;;;29.30;1.00;;;;;;5006274;28;20452;-81
2022/07/24 13:51:01;;;;;;;1.67;1.45;;;29.40;1.00;;;;;;5005251;28;20574;-83
2022/07/24 13:53:27;;;;;;;1.83;1.73;;;29.40;1.00;;;;;;5005390;28;20211;-77
2022/07/24 13:55:53;;;;;;;3.83;1.60;;;29.40;1.00;;;;;;5006069;28;20275;-82
2022/07/24 13:58:18;;;;;;;1.63;1.52;;;29.40;1.00;;;;;;5006354;28;20180;-81
2022/07/24 14:00:44;;;;;;;2.25;1.58;;;29.50;1.00;;;;;;5005057;28;20206;-82
2022/07/24 14:03:09;;;;;;;2.78;1.90;;;29.50;1.00;;;;;;5004917;28;20207;-82
2022/07/24 14:05:35;;;;;;;1.63;1.52;;;29.30;1.00;;;;;;5005528;28;20191;-79
2022/07/24 14:08:00;;;;;;;2.13;1.55;;;29.50;1.00;;;;;;5006355;28;20187;-81
2022/07/24 14:10:26;;;;;;;1.63;1.52;;;29.60;1.00;;;;;;5006481;28;20207;-83
2022/07/24 14:12:52;;;;;;;2.53;1.40;;;29.70;1.00;;;;;;5005741;28;20437;-79
2022/07/24 14:15:17;;;;;;;2.55;1.55;;;29.40;1.00;;;;;;5005150;28;20183;-79
2022/07/24 14:17:44;;;;;;;1.70;1.50;;;29.30;1.00;;;;;;5005691;28;20180;-79
2022/07/24 14:20:12;;;;;;;1.73;1.60;;;29.20;1.00;;;;;;5004853;28;20680;-81
2022/07/24 14:22:39;;;;;;;1.83;1.73;;;29.30;1.00;;;;;;5012389;28;20196;-83
2022/07/24 14:25:06;;;;;;;2.20;1.60;;;29.30;1.00;;;;;;5004390;28;20226;-85
2022/07/24 14:27:33;;;;;;;2.35;1.80;;;29.20;1.00;;;;;;5010268;28;20198;-82
2022/07/24 14:29:59;;;;;;;1.70;1.60;;;29.30;1.00;;;;;;5008854;28;20187;-82
2022/07/24 14:32:24;;;;;;;1.80;1.70;;;29.30;1.00;;;;;;5011543;28;20235;-83
2022/07/24 14:34:50;;;;;;;2.10;1.85;;;29.60;1.00;;;;;;5014005;28;20243;-81
2022/07/24 14:37:16;;;;;;;5.75;1.73;;;29.70;1.00;;;;;;5014036;28;20195;-84
2022/07/24 14:39:42;;;;;;;8.50;2.25;;;29.70;1.00;;;;;;5012637;28;20180;-81
2022/07/24 14:42:07;;;;;;;2.08;1.58;;;29.50;1.00;;;;;;5012289;28;20678;-83
2022/07/24 14:44:33;;;;;;;2.00;1.80;;;29.50;1.00;;;;;;5013047;28;20669;-83
2022/07/24 14:47:00;;;;;;;1.90;1.80;;;29.60;1.00;;;;;;5014035;28;20210;-84
2022/07/24 14:49:26;;;;;;;3.95;1.75;;;29.50;1.00;;;;;;5012692;28;20235;-80
2022/07/24 14:51:52;;;;;;;4.93;1.90;;;29.40;1.00;;;;;;5014176;28;20218;-81
2022/07/24 14:54:17;;;;;;;1.73;1.63;;;29.60;1.00;;;;;;5014023;28;20191;-83
2022/07/24 14:56:43;;;;;;;1.85;1.75;;;29.70;1.00;;;;;;5014302;28;20191;-82
2022/07/24 14:59:09;;;;;;;2.15;1.95;;;29.70;1.00;;;;;;5013157;28;20187;-82
2022/07/24 15:01:35;;;;;;;1.80;1.70;;;29.60;1.00;;;;;;5010596;28;20204;-82
2022/07/24 15:04:01;;;;;;;2.10;2.00;;;29.70;1.00;;;;;;5010678;28;20680;-82
2022/07/24 15:06:27;;;;;;;2.20;2.00;;;29.70;1.00;;;;;;5012093;28;20190;-83
2022/07/24 15:08:53;;;;;;;2.30;2.10;;;29.90;1.00;;;;;;5012869;28;20716;-82
2022/07/24 15:11:21;;;;;;;2.05;1.92;;;29.80;1.00;;;;;;5013172;28;20211;-82
2022/07/24 15:13:49;;;;;;;2.08;1.92;;;29.70;1.00;;;;;;5011040;28;20293;-84
2022/07/24 15:16:15;;;;;;;2.10;1.90;;;29.70;1.00;;;;;;5011042;28;20620;-82
2022/07/24 15:18:40;;;;;;;2.20;2.00;;;29.70;1.00;;;;;;5011284;28;20183;-81
2022/07/24 15:21:06;;;;;;;2.35;2.15;;;29.70;1.00;;;;;;5004688;28;20693;-81
2022/07/24 15:23:32;;;;;;;2.20;2.00;;;29.70;1.00;;;;;;5003662;28;20608;-83
2022/07/24 15:25:58;;;;;;;3.33;2.13;;;29.80;1.00;;;;;;5004951;28;20439;-85
2022/07/24 15:28:24;;;;;;;2.50;2.30;;;30.00;1.00;;;;;;5005620;28;20237;-83
2022/07/24 15:30:49;;;;;;;2.13;2.03;;;30.20;1.00;;;;;;5004617;28;20577;-82
2022/07/24 15:33:15;;;;;;;2.35;2.15;;;30.20;1.00;;;;;;5003741;28;20252;-81
2022/07/24 15:35:41;;;;;;;3.33;2.03;;;29.70;1.00;;;;;;5004486;28;20172;-83
2022/07/24 15:38:06;;;;;;;2.25;2.08;;;29.80;1.00;;;;;;5005528;28;20179;-83
2022/07/24 15:40:32;;;;;;;3.08;2.00;;;29.70;1.00;;;;;;5010304;28;20349;-82
2022/07/24 15:42:58;;;;;;;2.08;1.98;;;29.60;1.00;;;;;;5006232;28;20191;-81
2022/07/24 15:45:24;;;;;;;3.03;1.98;;;29.70;1.00;;;;;;5004544;28;20183;-84
2022/07/24 15:47:50;;;;;;;2.28;2.08;;;29.80;1.00;;;;;;5004181;28;20573;-81
2022/07/24 15:50:16;;;;;;;3.70;2.20;;;29.70;1.00;;;;;;5004427;28;20183;-83
2022/07/24 15:52:42;;;;;;;2.40;2.20;;;29.60;1.00;;;;;;5004419;28;20214;-81
2022/07/24 15:55:08;;;;;;;1.90;1.80;;;29.50;1.00;;;;;;5004818;28;20557;-82
2022/07/24 15:57:33;;;;;;;2.60;2.40;;;29.60;1.00;;;;;;5004086;28;20822;-83
2022/07/24 15:59:59;;;;;;;2.67;2.47;;;29.80;1.00;;;;;;5005602;28;20266;-85
2022/07/24 16:02:25;;;;;;;2.75;2.45;;;29.60;1.00;;;;;;5003588;28;20701;-82
2022/07/24 16:04:51;;;;;;;2.85;2.38;;;29.50;1.00;;;;;;5003584;28;20257;-81
2022/07/24 16:07:18;;;;;;;2.60;2.40;;;29.50;1.00;;;;;;5003200;28;20193;-82
2022/07/24 16:09:45;;;;;;;3.75;2.58;;;29.40;1.00;;;;;;5004541;28;20183;-84
2022/07/24 16:12:11;;;;;;;2.50;2.30;;;29.50;1.00;;;;;;5002163;28;20211;-81
2022/07/24 16:14:36;;;;;;;2.50;2.33;;;29.30;1.00;;;;;;5003228;28;20237;-82
2022/07/24 16:17:02;;;;;;;2.13;2.00;;;29.40;1.00;;;;;;5002246;28;20226;-83
2022/07/24 16:19:28;;;;;;;2.40;2.20;;;29.60;1.00;;;;;;5002423;28;20183;-82
2022/07/24 16:21:53;;;;;;;2.28;2.17;;;29.40;1.00;;;;;;5000986;28;20208;-81
2022/07/24 16:24:19;;;;;;;2.30;2.10;;;29.40;1.00;;;;;;5002893;28;20182;-84
2022/07/24 16:26:44;;;;;;;2.55;2.35;;;29.50;1.00;;;;;;5004105;28;20663;-82
2022/07/24 16:29:10;;;;;;;2.60;2.40;;;29.40;1.00;;;;;;5004545;28;20194;-84
2022/07/24 16:31:35;;;;;;;3.17;2.30;;;29.30;1.00;;;;;;5004584;28;20235;-81
2022/07/24 16:34:02;;;;;;;2.88;2.58;;;29.50;1.00;;;;;;5007422;28;20615;-82
2022/07/24 16:36:28;;;;;;;2.88;2.60;;;29.30;1.00;;;;;;5012023;28;20182;-84
2022/07/24 16:38:53;;;;;;;2.60;2.40;;;29.00;1.00;;;;;;5017712;28;20183;-83
2022/07/24 16:41:19;;;;;;;2.38;2.17;;;28.80;1.00;;;;;;5010722;28;20202;-83
2022/07/24 16:43:44;;;;;;;2.53;2.22;;;28.80;1.00;;;;;;5010383;28;20194;-81
2022/07/24 16:46:10;;;;;;;2.85;2.20;;;28.80;1.00;;;;;;5012033;28;20205;-85
2022/07/24 16:48:35;;;;;;;2.70;2.50;;;29.00;1.00;;;;;;5010727;28;20879;-82
2022/07/24 16:51:01;;;;;;;2.67;2.47;;;29.00;1.00;;;;;;5007499;28;20207;-83
2022/07/24 16:53:27;;;;;;;2.65;2.45;;;29.00;1.00;;;;;;5007840;28;20210;-81
2022/07/24 16:55:52;;;;;;;2.58;2.40;;;28.80;1.00;;;;;;5008132;28;20187;-83
2022/07/24 16:58:18;;;;;;;2.63;2.42;;;28.80;1.00;;;;;;5006925;28;20247;-82
2022/07/24 17:00:43;;;;;;;2.80;2.60;;;28.80;1.00;;;;;;5007589;28;20242;-84
2022/07/24 17:03:09;;;;;;;2.35;2.15;;;28.50;1.00;;;;;;5010862;28;20203;-81
2022/07/24 17:05:35;;;;;;;2.75;2.55;;;28.80;1.00;;;;;;5008136;28;20182;-82
2022/07/24 17:08:00;;;;;;;4.65;2.60;;;28.70;1.00;;;;;;5008984;28;20184;-86
2022/07/24 17:10:26;;;;;;;2.47;2.28;;;28.70;1.00;;;;;;5010261;28;20214;-83
2022/07/24 17:12:53;;;;;;;2.25;2.08;;;28.70;1.00;;;;;;5009773;28;20207;-85
2022/07/24 17:15:19;;;;;;;2.55;2.35;;;28.90;1.00;;;;;;5011504;28;20207;-80
2022/07/24 17:17:57;;;;;;;2.95;2.22;;;28.50;1.00;;;;;;5010798;28;20718;-85
2022/07/24 17:20:27;;;;;;;2.45;2.25;;;28.50;1.00;;;;;;5009229;28;20184;-83
2022/07/24 17:22:53;;;;;;;2.75;2.20;;;28.30;1.00;;;;;;5010548;28;20745;-85
2022/07/24 17:25:19;;;;;;;2.72;2.53;;;28.50;1.00;;;;;;5010123;28;20180;-84
2022/07/24 17:27:45;;;;;;;2.80;2.60;;;28.40;1.00;;;;;;5010175;28;20195;-84
2022/07/24 17:30:11;;;;;;;3.00;2.60;;;28.40;1.00;;;;;;5009712;28;20186;-85
2022/07/24 17:32:37;;;;;;;2.50;2.30;;;28.40;1.00;;;;;;5026573;28;20262;-83
2022/07/24 17:35:03;;;;;;;3.00;2.80;;;28.30;1.00;;;;;;5010146;28;20199;-82
2022/07/24 17:37:30;;;;;;;2.40;2.20;;;28.40;1.00;;;;;;5010971;28;20188;-83
2022/07/24 17:39:56;;;;;;;3.50;2.75;;;28.60;1.00;;;;;;5008558;28;20184;-84
2022/07/24 17:42:22;;;;;;;2.55;2.35;;;28.30;1.00;;;;;;5009898;28;20267;-83
2022/07/24 17:44:49;;;;;;;2.75;2.55;;;28.30;1.00;;;;;;5009209;28;20186;-85
2022/07/24 17:47:15;;;;;;;2.13;2.03;;;28.20;1.00;;;;;;5016310;28;20198;-81
2022/07/24 17:49:42;;;;;;;2.30;2.15;;;28.20;1.00;;;;;;5008332;28;20180;-81
2022/07/24 17:52:08;;;;;;;2.70;2.50;;;28.10;1.00;;;;;;5007686;28;20340;-83
2022/07/24 17:54:34;;;;;;;2.67;2.47;;;27.90;1.00;;;;;;5005340;28;20866;-84
2022/07/24 17:57:00;;;;;;;3.15;2.50;;;27.70;1.00;;;;;;5004134;28;20184;-86
2022/07/24 17:59:26;;;;;;;2.53;2.33;;;27.60;1.00;;;;;;5008560;28;20191;-83
2022/07/24 18:01:52;;;;;;;2.85;2.50;;;27.50;1.00;;;;;;5011386;28;20700;-82
2022/07/24 18:04:18;;;;;;;2.65;2.45;;;27.40;1.00;;;;;;5012542;28;20206;-84
2022/07/24 18:06:44;;;;;;;3.10;2.10;;;27.50;1.00;;;;;;5015965;28;20662;-85
2022/07/24 18:09:10;;;;;;;2.42;2.00;;;27.50;1.00;;;;;;5016748;28;20222;-83
2022/07/24 18:11:35;;;;;;;4.88;2.60;;;27.40;1.00;;;;;;5016846;28;20222;-84
2022/07/24 18:14:01;;;;;;;2.10;1.90;;;27.30;1.00;;;;;;4981631;28;20707;-81
2022/07/24 18:16:26;;;;;;;2.63;2.22;;;27.30;1.00;;;;;;5012307;28;20186;-77
2022/07/24 18:18:52;;;;;;;2.45;2.20;;;27.30;1.00;;;;;;5012743;28;20187;-79
2022/07/24 18:21:17;;;;;;;2.83;2.20;;;27.20;1.00;;;;;;5012927;28;20200;-80
2022/07/24 18:23:44;;;;;;;2.40;2.20;;;27.10;1.00;;;;;;5012631;28;20183;-80
2022/07/24 18:26:10;;;;;;;2.33;2.13;;;26.90;1.00;;;;;;5012230;28;20183;-79
2022/07/24 18:28:35;;;;;;;2.63;2.40;;;27.10;1.00;;;;;;5011290;28;20212;-78
2022/07/24 18:31:01;;;;;;;2.50;2.30;;;26.80;1.00;;;;;;5011868;28;20210;-77
2022/07/24 18:33:27;;;;;;;2.60;2.40;;;27.00;1.00;;;;;;5010810;28;20215;-80
2022/07/24 18:35:53;;;;;;;2.25;2.05;;;26.50;1.00;;;;;;5011496;28;20214;-78
2022/07/24 18:38:18;;;;;;;2.00;1.90;;;26.30;1.00;;;;;;5011768;28;20270;-79
2022/07/24 18:40:44;;;;;;;2.42;2.22;;;26.20;1.00;;;;;;5014340;28;20210;-80
2022/07/24 18:43:10;;;;;;;4.47;2.38;;;26.10;1.00;;;;;;5014503;28;20191;-79
2022/07/24 18:45:35;;;;;;;2.60;2.20;;;25.90;1.00;;;;;;5017348;28;20187;-81
2022/07/24 18:48:01;;;;;;;2.97;2.10;;;25.90;1.00;;;;;;5012313;28;20187;-83
2022/07/24 18:50:26;;;;;;;2.40;2.20;;;25.80;1.00;;;;;;5011935;28;21995;-79
2022/07/24 18:52:52;;;;;;;2.67;2.10;;;25.70;1.00;;;;;;5011853;28;20203;-79
2022/07/24 18:55:17;;;;;;;3.17;2.20;;;25.50;1.00;;;;;;5012662;28;20202;-82
2022/07/24 18:57:43;;;;;;;2.40;2.20;;;25.30;1.00;;;;;;5010694;28;20191;-84
2022/07/24 19:00:10;;;;;;;2.60;2.30;;;25.40;1.00;;;;;;5007731;28;20215;-84
2022/07/24 19:02:36;;;;;;;3.25;2.38;;;24.80;1.00;;;;;;5010472;28;20231;-82
2022/07/24 19:05:03;;;;;;;2.42;2.10;;;24.70;1.00;;;;;;5010146;28;20282;-81
2022/07/24 19:07:29;;;;;;;3.03;2.08;;;24.40;1.00;;;;;;5020834;28;20184;-80
2022/07/24 19:09:54;;;;;;;3.83;2.30;;;24.20;1.00;;;;;;5009593;28;20196;-81
2022/07/24 19:12:20;;;;;;;2.50;2.30;;;24.10;1.00;;;;;;5010400;28;20663;-82
2022/07/24 19:14:46;;;;;;;5.43;2.58;;;24.00;1.00;;;;;;5012148;28;21145;-80
2022/07/24 19:17:12;;;;;;;2.63;2.13;;;23.80;1.00;;;;;;5012529;28;20255;-80
2022/07/24 19:19:38;;;;;;;3.25;2.47;;;23.80;1.00;;;;;;5012350;28;20234;-79
2022/07/24 19:22:04;;;;;;;3.38;2.25;;;23.80;1.00;;;;;;5010806;28;20210;-81
2022/07/24 19:24:30;;;;;;;4.53;2.40;;;23.70;1.00;;;;;;5011517;28;20203;-81
2022/07/24 19:26:56;;;;;;;2.50;2.20;;;23.70;1.00;;;;;;5018797;28;20180;-84
2022/07/24 19:29:21;;;;;;;2.20;2.00;;;23.60;1.00;;;;;;5009276;28;20184;-82
2022/07/24 19:31:49;;;;;;;2.67;2.30;;;23.30;1.00;;;;;;5009637;28;20199;-82
2022/07/24 19:34:14;;;;;;;4.03;2.13;;;23.40;1.00;;;;;;5011296;28;20203;-82
2022/07/24 19:36:40;;;;;;;3.30;2.42;;;23.80;1.00;;;;;;5010444;28;20200;-80
2022/07/24 19:39:06;;;;;;;2.72;2.47;;;23.00;18.00;;;;;;5011940;28;20187;-80
2022/07/24 19:41:32;;;;;;;3.45;2.38;;;23.40;47.20;;;;;;5009258;28;20700;-82
2022/07/24 19:43:58;;;;;;;2.70;2.50;;;22.70;54.60;;;;;;5009256;28;20259;-80
2022/07/24 19:46:23;;;;;;;2.65;2.38;;;22.70;96.00;;;;;;5008621;28;20183;-85
2022/07/24 19:48:49;;;;;;;2.50;2.30;;;22.60;99.90;;;;;;5006498;28;20244;-80
2022/07/24 19:51:15;;;;;;;7.72;2.90;;;23.10;99.90;;;;;;5006687;28;20210;-83
2022/07/24 19:53:40;;;;;;;3.47;2.30;;;22.40;99.90;;;;;;5003664;28;20224;-82
2022/07/24 19:56:06;;;;;;;4.43;2.15;;;22.40;99.90;;;;;;5005712;28;20680;-82
2022/07/24 19:58:32;;;;;;;8.07;2.85;;;22.10;99.90;;;;;;5006775;28;20176;-82
2022/07/24 20:00:57;;;;;;;6.95;2.72;;;22.10;99.90;;;;;;5005489;28;20207;-79
2022/07/24 20:03:23;;;;;;;6.68;2.80;;;22.60;99.90;;;;;;5006955;28;20246;-80
2022/07/24 20:05:48;;;;;;;9.00;2.35;;;22.20;99.90;;;;;;5006597;28;20212;-83
2022/07/24 20:08:14;;;;;;;9.30;3.20;;;21.70;1.00;;;;;;5005864;28;20289;-82
2022/07/24 20:10:40;;;;;;;13.20;3.30;;;21.60;1.00;;;;;;5014414;28;20540;-81
2022/07/24 20:13:06;;;;;;;11.55;2.97;;;21.50;1.00;;;;;;5005972;28;20222;-84
2022/07/24 20:15:32;;;;;;;5.97;3.03;;;22.50;1.00;;;;;;5005032;28;20191;-85
2022/07/24 20:17:57;;;;;;;5.38;2.90;;;22.40;8.80;;;;;;5002217;28;20202;-84
2022/07/24 20:20:23;;;;;;;7.38;3.30;;;21.30;1.00;;;;;;5005025;28;20190;-85
2022/07/24 20:22:49;;;;;;;7.13;2.92;;;21.20;1.00;;;;;;5004887;28;20183;-84
2022/07/24 20:25:16;;;;;;;11.30;3.08;;;20.90;1.00;;;;;;5006517;28;20179;-83
2022/07/24 20:27:42;;;;;;;5.72;2.90;;;21.90;99.90;;;;;;5004148;28;20188;-85
2022/07/24 20:30:09;;;;;;;4.68;3.00;;;20.90;99.90;;;;;;5003199;28;20179;-85
2022/07/24 20:32:34;;;;;;;6.90;2.88;;;20.90;99.90;;;;;;5019430;28;20211;-84
2022/07/24 20:35:00;;;;;;;7.68;3.33;;;22.10;1.00;;;;;;5005876;28;20198;-85
2022/07/24 20:37:26;;;;;;;6.82;3.90;;;21.60;1.00;;;;;;5004888;28;20183;-84
2022/07/24 20:39:52;;;;;;;8.85;2.97;;;20.70;1.00;;;;;;5000710;28;20450;-85
2022/07/24 20:42:18;;;;;;;14.73;3.47;;;20.70;1.00;;;;;;5003723;28;20203;-84
2022/07/24 20:44:44;;;;;;;11.18;3.55;;;20.60;99.90;;;;;;5003501;28;20229;-84
2022/07/24 20:47:10;;;;;;;11.02;3.88;;;20.60;1.00;;;;;;5003043;28;20266;-84
2022/07/24 20:49:36;;;;;;;8.60;3.50;;;20.90;1.00;;;;;;5003007;28;20180;-85
2022/07/24 20:52:01;;;;;;;10.25;3.63;;;20.50;1.00;;;;;;5003006;28;20234;-84
2022/07/24 20:54:27;;;;;;;14.13;4.03;;;20.80;99.90;;;;;;5004515;28;20187;-84
2022/07/24 20:56:53;;;;;;;7.78;3.38;;;20.80;1.00;;;;;;5005714;28;20262;-84
2022/07/24 20:59:18;;;;;;;6.32;3.13;;;20.30;99.90;;;;;;5004111;28;20658;-84
2022/07/24 21:01:44;;;;;;;7.22;3.33;;;20.30;1.00;;;;;;5003266;28;20582;-84
2022/07/24 21:04:10;;;;;;;6.72;3.20;;;20.20;99.90;;;;;;5003700;28;20199;-85
2022/07/24 21:06:36;;;;;;;7.28;3.55;;;20.20;99.90;;;;;;5011729;28;20198;-85
2022/07/24 21:09:02;;;;;;;7.82;3.30;;;20.20;99.90;;;;;;5003293;28;20184;-84
2022/07/24 21:11:28;;;;;;;9.20;3.40;;;20.10;99.90;;;;;;5003892;28;20258;-84